Kezdőlap
METAR-TAF:

METAR-TAF

Repülőterek :

Dusanbei nemzetközi repülőtér

Dusanbe, Tadzsikisztán

földrajzi szélesség: 38-33N, földrajzi hosszúság: 068-47E, magasság: 803 m

Jelenlegi meteorológiai megfigyelések

A jelentés 12 perccel ezelõtt készült, 13:00 UTC
Északi szél 2 kt
Hőmérséklet 13°C
Páratartalom 35%
Légköri nyomás 1021 hPa
Látótávolság: 5000 m
füst

METAR: UTDD 311300Z 36001MPS 5000 FU NSC 13/M02 Q1021 R09/D NOSIG RMK QFE697/0930

Idő: 18:12 (13:12 UTC)

Előrejelzés

A jelentés 1 órával és 12 perccel ezelõtt készült, 12:00 UTC
Az előrejelzés 31-én 13 óra UTC és 01-én 01 óra UTC között érvényes
Különbözõ irányokból fújó szél 4 kt
Látótávolság: 6000 m
Kevés felhő 6600 lábon
Szórványos felhőzet 12000 lábon

TAF: UTDD 311200Z 3113/0101 VRB02MPS 6000 FEW066 SCT120

Meteorológiai megfigyelések és előrejelzések több, mint 4000 repülőtéren (METAR és TAF jelentéseket).

A térképen piros és sárga pontok jelzik az elérhető meteorológiai állomásokat.

Mozgassa az egeret a pont fölött, hogy megjelenjen az állomás neve.

Azután kattintson az időjárási megfigyelések és előrejelzések megtekintéséhez.

A térkép megváltoztatása: kattintson a fekete keresztel jelölt zöld gombra ráközelítéshez, a vonallal jelölt zöld gombra távolításhoz, vagy a zöld nyilakra a szomszédos térképek eléréséhez.


METAR-TAF: